createdAt,value
2018-12-20T07:27:08.881Z,204.00
2018-12-20T07:28:08.791Z,216.00
2018-12-20T07:30:02.041Z,216.00
2018-12-20T07:31:01.989Z,228.00
2018-12-20T07:32:01.906Z,240.00
2018-12-20T07:33:01.857Z,256.00
2018-12-20T07:34:01.768Z,272.00
2018-12-20T07:35:01.706Z,284.00
2018-12-20T07:36:01.637Z,280.00
2018-12-20T07:37:01.572Z,276.00
2018-12-20T07:38:01.530Z,276.00
2018-12-20T07:39:01.436Z,276.00
2018-12-20T07:40:01.378Z,280.00
2018-12-20T07:41:01.299Z,280.00
2018-12-20T07:42:01.235Z,276.00
2018-12-20T07:43:01.168Z,264.00
2018-12-20T07:44:01.108Z,264.00
2018-12-20T07:45:01.057Z,256.00
2018-12-20T07:46:00.987Z,260.00
2018-12-20T07:47:00.910Z,264.00
2018-12-20T07:48:00.831Z,264.00
2018-12-20T07:49:00.768Z,272.00
2018-12-20T07:50:00.700Z,284.00
2018-12-20T07:51:00.638Z,292.00
2018-12-20T07:52:00.560Z,312.00
2018-12-20T07:53:00.499Z,316.00
2018-12-20T07:54:00.430Z,320.00
2018-12-20T07:55:00.364Z,336.00
2018-12-20T07:56:00.297Z,336.00
2018-12-20T07:57:00.230Z,324.00
2018-12-20T07:58:00.171Z,316.00
2018-12-20T07:59:00.093Z,304.00
2018-12-20T08:00:00.037Z,292.00
2018-12-20T08:00:59.963Z,292.00
2018-12-20T08:01:59.904Z,292.00
2018-12-20T08:02:59.828Z,292.00
2018-12-20T08:03:59.759Z,292.00
2018-12-20T08:04:59.708Z,300.00
2018-12-20T08:05:59.627Z,308.00
2018-12-20T08:06:59.563Z,328.00
2018-12-20T08:07:59.500Z,360.00
2018-12-20T08:08:59.441Z,380.00
2018-12-20T08:09:59.368Z,396.00
2018-12-20T08:10:59.298Z,432.00
2018-12-20T08:11:59.236Z,480.00
2018-12-20T08:12:59.164Z,496.00
2018-12-20T08:13:59.098Z,496.00
2018-12-20T08:14:59.036Z,508.00
2018-12-20T08:15:58.964Z,512.00
2018-12-20T08:16:58.900Z,540.00
2018-12-20T08:17:58.849Z,560.00
2018-12-20T08:18:58.784Z,620.00
2018-12-20T08:19:58.697Z,744.00
2018-12-20T08:20:58.640Z,808.00
2018-12-20T08:21:58.566Z,788.00
2018-12-20T08:22:58.504Z,760.00
2018-12-20T08:23:58.454Z,752.00
2018-12-20T08:24:58.404Z,716.00
2018-12-20T08:25:58.319Z,720.00
2018-12-20T08:26:58.233Z,744.00
2018-12-20T08:27:58.178Z,808.00
2018-12-20T08:28:58.104Z,816.00
2018-12-20T08:29:58.065Z,788.00
2018-12-20T08:30:57.975Z,852.00
2018-12-20T08:31:57.909Z,864.00
2018-12-20T08:32:57.844Z,868.00
2018-12-20T08:33:57.768Z,808.00
2018-12-20T08:34:57.706Z,884.00
2018-12-20T08:35:57.633Z,896.00
2018-12-20T08:36:57.574Z,864.00
2018-12-20T08:37:57.519Z,892.00
2018-12-20T08:38:57.440Z,912.00
2018-12-20T08:39:57.386Z,952.00
2018-12-20T08:40:57.304Z,1000.00
2018-12-20T08:41:57.269Z,1032.00
2018-12-20T08:42:57.168Z,936.00
2018-12-20T08:43:57.127Z,936.00
2018-12-20T08:44:57.045Z,944.00
2018-12-20T08:45:56.989Z,940.00
2018-12-20T08:46:56.923Z,940.00
2018-12-20T08:47:56.840Z,976.00
2018-12-20T08:48:56.791Z,988.00
2018-12-20T08:49:56.710Z,1040.00
2018-12-20T08:50:56.649Z,1032.00
2018-12-20T08:51:56.586Z,1028.00
2018-12-20T08:52:56.516Z,1016.00
2018-12-20T08:53:56.451Z,972.00
2018-12-20T08:54:56.375Z,968.00
2018-12-20T08:55:56.335Z,968.00
2018-12-20T08:56:56.243Z,984.00
2018-12-20T08:57:56.183Z,1012.00
2018-12-20T08:58:56.148Z,1024.00
2018-12-20T08:59:56.052Z,1044.00
2018-12-20T09:00:55.993Z,1056.00
2018-12-20T09:01:55.913Z,996.00
2018-12-20T09:02:55.853Z,852.00
2018-12-20T09:03:55.785Z,836.00
2018-12-20T09:04:55.719Z,756.00
2018-12-20T09:05:55.664Z,720.00
2018-12-20T09:06:55.592Z,716.00
2018-12-20T09:07:55.612Z,696.00
2018-12-20T09:08:55.451Z,688.00
2018-12-20T09:09:55.393Z,692.00
2018-12-20T09:10:55.323Z,712.00
2018-12-20T09:11:55.262Z,704.00
2018-12-20T09:12:55.193Z,728.00
2018-12-20T09:13:55.124Z,748.00
2018-12-20T09:14:55.073Z,760.00
2018-12-20T09:15:54.987Z,780.00
2018-12-20T09:17:02.601Z,764.00
2018-12-20T09:17:54.856Z,800.00
2018-12-20T09:18:54.801Z,816.00
2018-12-20T09:19:54.737Z,832.00
2018-12-20T09:20:54.663Z,832.00
2018-12-20T09:21:54.596Z,844.00
2018-12-20T09:22:54.526Z,840.00
2018-12-20T09:23:54.471Z,852.00
2018-12-20T09:24:54.395Z,856.00
2018-12-20T09:25:54.334Z,868.00
2018-12-20T09:26:54.274Z,884.00
2018-12-20T09:27:54.199Z,904.00
2018-12-20T09:28:54.153Z,884.00
2018-12-20T09:29:54.067Z,948.00
2018-12-20T09:30:54.001Z,984.00
2018-12-20T09:31:53.948Z,1008.00
2018-12-20T09:32:53.876Z,1068.00
2018-12-20T09:33:53.805Z,1116.00
2018-12-20T09:34:53.736Z,1128.00
2018-12-20T09:35:53.671Z,1136.00
2018-12-20T09:36:53.605Z,1144.00
2018-12-20T09:37:53.542Z,1136.00
2018-12-20T09:38:53.483Z,1148.00
2018-12-20T09:39:53.438Z,1156.00
2018-12-20T09:40:53.350Z,1136.00
2018-12-20T09:41:53.276Z,1188.00
2018-12-20T09:42:53.215Z,1116.00
2018-12-20T09:43:53.152Z,1212.00
2018-12-20T09:44:53.087Z,1232.00
2018-12-20T09:45:53.032Z,1196.00
2018-12-20T09:46:52.943Z,1240.00
2018-12-20T09:47:52.904Z,1220.00
2018-12-20T09:48:52.813Z,1232.00
2018-12-20T09:49:52.750Z,1216.00
2018-12-20T09:50:52.688Z,1200.00
2018-12-20T09:51:52.634Z,1160.00
2018-12-20T09:52:52.570Z,1180.00
2018-12-20T09:53:52.502Z,1180.00
2018-12-20T09:54:52.417Z,1180.00
2018-12-20T09:55:52.353Z,1164.00
2018-12-20T09:56:52.292Z,1156.00
2018-12-20T09:57:52.225Z,1176.00
2018-12-20T09:58:52.155Z,1176.00
2018-12-20T09:59:52.106Z,1164.00
2018-12-20T10:00:52.021Z,1160.00
2018-12-20T10:01:51.973Z,1172.00
2018-12-20T10:02:51.888Z,1176.00
2018-12-20T10:03:51.827Z,1208.00
2018-12-20T10:04:51.762Z,1236.00
2018-12-20T10:05:51.694Z,1300.00
2018-12-20T10:06:51.684Z,1264.00
2018-12-20T10:07:51.560Z,1288.00
2018-12-20T10:08:51.507Z,1324.00
2018-12-20T10:09:51.428Z,1368.00
2018-12-20T10:10:51.365Z,1336.00
2018-12-20T10:11:51.324Z,1324.00
2018-12-20T10:12:51.290Z,1316.00
2018-12-20T10:13:51.175Z,1344.00
2018-12-20T10:14:51.110Z,1344.00
2018-12-20T10:15:51.057Z,1328.00
2018-12-20T10:16:51.092Z,1300.00
2018-12-20T10:17:50.927Z,1268.00
2018-12-20T10:18:50.866Z,1228.00
2018-12-20T10:19:50.775Z,1224.00
2018-12-20T10:20:50.713Z,1240.00
2018-12-20T10:21:50.650Z,1264.00
2018-12-20T10:22:50.594Z,1236.00
2018-12-20T10:23:50.518Z,1248.00
2018-12-20T10:24:50.445Z,1236.00
2018-12-20T10:25:50.413Z,1244.00
2018-12-20T10:26:50.337Z,1244.00
2018-12-20T10:27:50.252Z,1248.00
2018-12-20T10:28:50.187Z,1232.00
2018-12-20T10:29:50.129Z,1236.00
2018-12-20T10:30:50.067Z,1224.00
2018-12-20T10:31:50.034Z,1208.00
2018-12-20T10:32:49.943Z,1200.00
2018-12-20T10:33:49.878Z,1204.00
2018-12-20T10:34:49.791Z,1208.00
2018-12-20T10:35:49.754Z,1204.00
2018-12-20T10:36:49.666Z,1196.00
2018-12-20T10:37:49.603Z,1196.00
2018-12-20T10:38:49.567Z,1212.00
2018-12-20T10:39:49.480Z,1256.00
2018-12-20T10:40:49.424Z,1288.00
2018-12-20T10:41:49.352Z,1316.00
2018-12-20T10:42:49.289Z,1284.00
2018-12-20T10:43:49.229Z,1248.00
2018-12-20T10:44:49.151Z,1240.00
2018-12-20T10:45:49.073Z,1228.00
2018-12-20T10:46:49.008Z,1252.00
2018-12-20T10:47:48.952Z,1260.00
2018-12-20T10:48:48.890Z,1276.00
2018-12-20T10:49:48.860Z,1292.00
2018-12-20T10:50:48.742Z,1312.00
2018-12-20T10:51:48.679Z,1328.00
2018-12-20T10:52:48.617Z,1360.00
2018-12-20T10:53:48.590Z,1372.00
2018-12-20T10:54:48.516Z,1364.00
2018-12-20T10:55:48.421Z,1328.00
2018-12-20T10:56:48.372Z,1260.00
2018-12-20T10:57:48.301Z,1188.00
2018-12-20T10:58:48.218Z,1132.00
2018-12-20T10:59:48.181Z,1092.00
2018-12-20T11:00:48.121Z,1060.00
2018-12-20T11:01:48.034Z,1032.00
2018-12-20T11:02:47.961Z,1024.00
2018-12-20T11:03:47.899Z,1044.00
2018-12-20T11:04:47.911Z,1048.00
2018-12-20T11:05:47.832Z,1064.00
2018-12-20T11:06:47.722Z,1080.00
2018-12-20T11:07:47.647Z,1096.00
2018-12-20T11:08:47.590Z,1100.00
2018-12-20T11:09:47.505Z,1100.00
2018-12-20T11:10:47.443Z,1100.00
2018-12-20T11:11:47.373Z,1104.00
2018-12-20T11:12:47.318Z,1124.00
2018-12-20T11:13:47.239Z,1160.00
2018-12-20T11:14:47.192Z,1200.00
2018-12-20T11:15:47.109Z,1252.00
2018-12-20T11:16:47.065Z,1312.00
2018-12-20T11:17:47.000Z,1360.00
2018-12-20T11:18:46.917Z,1404.00
2018-12-20T11:19:46.851Z,1448.00
2018-12-20T11:20:46.793Z,1508.00
2018-12-20T11:21:46.772Z,1524.00
2018-12-20T11:22:46.704Z,1528.00
2018-12-20T11:23:46.614Z,1532.00
2018-12-20T11:24:46.679Z,1508.00
2018-12-20T11:25:46.456Z,1464.00
2018-12-20T11:26:46.392Z,1444.00
2018-12-20T11:27:46.351Z,1424.00
2018-12-20T11:28:46.269Z,1408.00
2018-12-20T11:29:46.200Z,1400.00
2018-12-20T11:30:46.180Z,1400.00
2018-12-20T11:31:46.078Z,1400.00
2018-12-20T11:32:45.999Z,1396.00
2018-12-20T11:33:45.960Z,1380.00
2018-12-20T11:34:45.889Z,1344.00
2018-12-20T11:35:45.806Z,1332.00
2018-12-20T11:36:45.741Z,1308.00
2018-12-20T11:37:45.683Z,1300.00
2018-12-20T11:38:45.621Z,1280.00
2018-12-20T11:39:45.548Z,1276.00
2018-12-20T11:40:45.490Z,1288.00
2018-12-20T11:41:45.422Z,1300.00
2018-12-20T11:42:45.347Z,1312.00
2018-12-20T11:43:45.299Z,1344.00
2018-12-20T11:44:45.242Z,1384.00
2018-12-20T11:45:45.157Z,1424.00
2018-12-20T11:46:45.100Z,1452.00
2018-12-20T11:47:46.098Z,1468.00
2018-12-20T11:48:44.969Z,1448.00
2018-12-20T11:49:44.912Z,1428.00
2018-12-20T11:50:44.871Z,1424.00
2018-12-20T11:51:44.771Z,1420.00
2018-12-20T11:52:44.697Z,1420.00
2018-12-20T11:53:44.636Z,1368.00
2018-12-20T11:54:44.628Z,1320.00
2018-12-20T11:55:44.506Z,1276.00
2018-12-20T11:56:44.440Z,1244.00
2018-12-20T11:57:44.438Z,1244.00
2018-12-20T11:58:44.318Z,1280.00
2018-12-20T11:59:44.255Z,1312.00
2018-12-20T12:00:44.193Z,1328.00
2018-12-20T12:01:44.129Z,1320.00
2018-12-20T12:02:44.047Z,1296.00
2018-12-20T12:03:43.990Z,1276.00
2018-12-20T12:04:43.922Z,1284.00
2018-12-20T12:05:43.860Z,1280.00
2018-12-20T12:06:43.803Z,1284.00
2018-12-20T12:07:43.736Z,1320.00
2018-12-20T12:08:43.689Z,1364.00
2018-12-20T12:09:43.592Z,1380.00
2018-12-20T12:10:43.555Z,1396.00
2018-12-20T12:11:43.495Z,1388.00
2018-12-20T12:12:43.398Z,1360.00
2018-12-20T12:13:43.335Z,1336.00
2018-12-20T12:14:43.270Z,1332.00
2018-12-20T12:15:43.204Z,1344.00
2018-12-20T12:16:43.155Z,1352.00
2018-12-20T12:17:43.089Z,1328.00
2018-12-20T12:18:43.032Z,1284.00
2018-12-20T12:19:42.940Z,1236.00
2018-12-20T12:20:42.929Z,1184.00
2018-12-20T12:21:42.839Z,1140.00
2018-12-20T12:22:42.749Z,1124.00
2018-12-20T12:23:42.774Z,1124.00
2018-12-20T12:24:42.650Z,1092.00
2018-12-20T12:25:42.553Z,1120.00
2018-12-20T12:26:42.490Z,1148.00
2018-12-20T12:27:42.437Z,1188.00
2018-12-20T12:28:42.376Z,1240.00
2018-12-20T12:29:42.290Z,1244.00
2018-12-20T12:30:42.234Z,1256.00
2018-12-20T12:31:42.195Z,1248.00
2018-12-20T12:32:42.100Z,1244.00
2018-12-20T12:33:42.036Z,1240.00
2018-12-20T12:34:41.993Z,1224.00
2018-12-20T12:35:41.921Z,1220.00
2018-12-20T12:36:41.842Z,1212.00
2018-12-20T12:37:41.805Z,1192.00
2018-12-20T12:38:41.736Z,1188.00
2018-12-20T12:39:41.645Z,1188.00
2018-12-20T12:40:41.651Z,1200.00
2018-12-20T12:41:41.531Z,1200.00
2018-12-20T12:42:41.463Z,1188.00
2018-12-20T12:43:41.386Z,1188.00
2018-12-20T12:44:41.329Z,1200.00
2018-12-20T12:45:41.271Z,1212.00
2018-12-20T12:46:41.194Z,1216.00
2018-12-20T12:47:41.125Z,1208.00
2018-12-20T12:48:41.092Z,1196.00
2018-12-20T12:49:40.992Z,1192.00
2018-12-20T12:50:40.932Z,1188.00
2018-12-20T12:51:40.891Z,1196.00
2018-12-20T12:52:40.810Z,1200.00
2018-12-20T12:53:40.757Z,1196.00
2018-12-20T12:54:40.690Z,1232.00
2018-12-20T12:55:40.613Z,1244.00
2018-12-20T12:56:40.546Z,1252.00
2018-12-20T12:57:40.478Z,1260.00
2018-12-20T12:58:40.421Z,1268.00
2018-12-20T12:59:40.344Z,1272.00
2018-12-20T13:00:40.283Z,1264.00
2018-12-20T13:01:40.217Z,1256.00
2018-12-20T13:02:40.167Z,1240.00
2018-12-20T13:03:40.113Z,1224.00
2018-12-20T13:04:40.050Z,1208.00
2018-12-20T13:05:39.960Z,1192.00
2018-12-20T13:06:39.897Z,1168.00
2018-12-20T13:07:39.829Z,1184.00
2018-12-20T13:08:39.785Z,1180.00
2018-12-20T13:09:39.696Z,1164.00
2018-12-20T13:10:40.195Z,1124.00
2018-12-20T13:11:39.605Z,1072.00
2018-12-20T13:12:39.511Z,1052.00
2018-12-20T13:13:39.441Z,1048.00
2018-12-20T13:14:39.406Z,1076.00
2018-12-20T13:15:39.309Z,1044.00
2018-12-20T13:16:39.248Z,1044.00
2018-12-20T13:17:39.183Z,1060.00
2018-12-20T13:18:39.123Z,1060.00
2018-12-20T13:19:39.049Z,1040.00
2018-12-20T13:20:38.988Z,1064.00
2018-12-20T13:21:38.934Z,1060.00
2018-12-20T13:22:38.859Z,1040.00
2018-12-20T13:23:38.794Z,1052.00
2018-12-20T13:24:40.267Z,1016.00
2018-12-20T13:25:38.667Z,1032.00
2018-12-20T13:26:38.600Z,1044.00
2018-12-20T13:27:38.537Z,1040.00
2018-12-20T13:28:38.499Z,1036.00
2018-12-20T13:29:38.401Z,1028.00
2018-12-20T13:30:38.340Z,1004.00
2018-12-20T13:31:38.272Z,968.00
2018-12-20T13:32:38.208Z,948.00
2018-12-20T13:33:38.145Z,952.00
2018-12-20T13:34:38.099Z,972.00
2018-12-20T13:35:38.033Z,944.00
2018-12-20T13:36:37.952Z,940.00
2018-12-20T13:37:37.885Z,920.00
2018-12-20T13:38:37.857Z,908.00
2018-12-20T13:39:37.755Z,904.00
2018-12-20T13:40:37.707Z,900.00
2018-12-20T13:41:37.639Z,892.00
2018-12-20T13:42:37.559Z,884.00
2018-12-20T13:43:37.499Z,876.00
2018-12-20T13:44:37.457Z,856.00
2018-12-20T13:45:37.367Z,824.00
2018-12-20T13:46:37.306Z,784.00
2018-12-20T13:47:37.240Z,764.00
2018-12-20T13:48:37.180Z,772.00
2018-12-20T13:49:37.119Z,776.00
2018-12-20T13:50:37.095Z,772.00
2018-12-20T13:51:36.988Z,764.00
2018-12-20T13:52:36.910Z,772.00
2018-12-20T13:53:36.853Z,780.00
2018-12-20T13:54:36.787Z,784.00
2018-12-20T13:55:36.723Z,760.00
2018-12-20T13:56:36.658Z,744.00
2018-12-20T13:57:36.592Z,708.00
2018-12-20T13:58:37.762Z,704.00
2018-12-20T13:59:36.521Z,692.00
2018-12-20T14:00:36.557Z,688.00
2018-12-20T14:01:36.359Z,696.00
2018-12-20T14:02:36.278Z,704.00
2018-12-20T14:03:36.281Z,704.00
2018-12-20T14:04:36.154Z,688.00
2018-12-20T14:05:36.073Z,680.00
2018-12-20T14:06:36.006Z,672.00
2018-12-20T14:07:35.945Z,676.00
2018-12-20T14:08:35.881Z,696.00
2018-12-20T14:09:35.824Z,696.00
2018-12-20T14:10:35.757Z,700.00
2018-12-20T14:11:35.747Z,692.00
2018-12-20T14:12:35.616Z,676.00
2018-12-20T14:13:35.557Z,648.00
2018-12-20T14:14:35.505Z,616.00
2018-12-20T14:15:35.437Z,600.00
2018-12-20T14:16:35.367Z,592.00
2018-12-20T14:17:35.300Z,580.00
2018-12-20T14:18:35.271Z,572.00
2018-12-20T14:19:35.177Z,560.00
2018-12-20T14:20:35.146Z,548.00
2018-12-20T14:21:35.049Z,532.00
2018-12-20T14:22:34.968Z,512.00
2018-12-20T14:23:34.909Z,488.00
2018-12-20T14:24:34.843Z,468.00
2018-12-20T14:25:34.781Z,456.00
2018-12-20T14:26:34.714Z,436.00
2018-12-20T14:27:34.650Z,412.00
2018-12-20T14:28:34.604Z,388.00
2018-12-20T14:29:34.531Z,368.00
2018-12-20T14:30:34.473Z,356.00
2018-12-20T14:31:34.399Z,336.00
2018-12-20T14:32:34.323Z,320.00
2018-12-20T14:33:34.262Z,304.00
2018-12-20T14:34:34.195Z,292.00
2018-12-20T14:35:34.136Z,280.00
2018-12-20T14:36:34.151Z,268.00
2018-12-20T14:37:34.000Z,256.00
2018-12-20T14:38:33.950Z,244.00
2018-12-20T14:39:33.879Z,232.00
2018-12-20T14:40:33.811Z,224.00
2018-12-20T14:41:33.749Z,216.00
2018-12-20T14:42:33.673Z,216.00
2018-12-20T14:43:33.611Z,216.00
2018-12-20T14:44:33.560Z,220.00
2018-12-20T14:45:33.481Z,216.00
2018-12-20T14:46:33.421Z,216.00
2018-12-20T14:47:33.353Z,216.00
2018-12-20T14:48:39.315Z,220.00
2018-12-20T14:49:33.230Z,220.00
2018-12-20T14:50:33.165Z,220.00
2018-12-20T14:51:33.110Z,212.00
2018-12-20T14:52:33.023Z,212.00
2018-12-20T14:53:32.965Z,212.00
2018-12-20T14:54:32.896Z,212.00
2018-12-20T14:55:32.833Z,212.00
2018-12-20T14:56:32.768Z,204.00
2018-12-20T14:57:32.704Z,200.00
2018-12-20T14:58:32.642Z,184.00
2018-12-20T14:59:32.595Z,168.00
2018-12-20T15:00:32.516Z,148.00
2018-12-20T15:01:32.457Z,132.00
2018-12-20T15:02:32.376Z,112.00
2018-12-20T15:03:32.313Z,96.00
2018-12-20T15:04:32.249Z,88.00
2018-12-20T15:05:32.184Z,80.00
2018-12-20T15:06:32.122Z,80.00
2018-12-20T15:07:32.054Z,76.00
2018-12-20T15:08:31.999Z,76.00
2018-12-20T15:09:31.922Z,76.00
2018-12-20T15:10:31.875Z,72.00
2018-12-20T15:11:31.808Z,76.00
2018-12-20T15:12:31.726Z,76.00
2018-12-20T15:13:31.662Z,76.00
2018-12-20T15:14:31.601Z,80.00
2018-12-20T15:15:31.560Z,80.00
2018-12-20T15:16:31.472Z,76.00
2018-12-20T15:17:31.404Z,76.00
2018-12-20T15:18:31.355Z,68.00
2018-12-20T15:19:31.271Z,68.00
2018-12-20T15:20:31.219Z,60.00
2018-12-20T15:21:31.165Z,56.00
2018-12-20T15:22:31.077Z,52.00
2018-12-20T15:23:31.014Z,44.00
2018-12-20T15:24:30.950Z,44.00
2018-12-20T15:25:30.888Z,36.00
2018-12-20T15:26:30.819Z,36.00
2018-12-20T15:27:30.755Z,32.00
2018-12-20T15:28:30.699Z,32.00
2018-12-20T15:29:30.618Z,28.00
2018-12-20T15:30:30.560Z,24.00
2018-12-20T15:31:30.508Z,24.00
2018-12-20T15:32:30.438Z,24.00
2018-12-20T15:33:30.363Z,20.00
2018-12-20T15:34:30.299Z,16.00
2018-12-20T15:35:30.246Z,16.00
2018-12-20T15:36:30.166Z,16.00
2018-12-20T15:37:30.104Z,12.00
2018-12-20T15:38:30.066Z,16.00
2018-12-20T15:39:29.967Z,16.00
2018-12-20T15:40:29.910Z,12.00
2018-12-20T15:41:29.841Z,8.00
2018-12-20T15:42:29.787Z,12.00
2018-12-20T15:43:29.713Z,8.00
2018-12-20T15:44:29.655Z,12.00
2018-12-20T15:45:29.592Z,8.00
2018-12-20T15:46:29.531Z,8.00
2018-12-20T15:47:29.472Z,12.00
2018-12-20T15:48:29.406Z,8.00
2018-12-20T15:49:29.318Z,8.00
2018-12-20T15:50:29.255Z,8.00
2018-12-20T15:51:29.192Z,8.00
2018-12-20T15:52:29.127Z,8.00
2018-12-20T15:53:29.060Z,8.00
2018-12-20T15:54:29.030Z,8.00
2018-12-20T15:55:28.941Z,8.00
2018-12-20T15:56:28.866Z,8.00
2018-12-20T15:57:28.800Z,8.00
2018-12-20T15:58:28.756Z,8.00
2018-12-20T15:59:28.667Z,8.00
2018-12-20T16:00:28.608Z,8.00
2018-12-20T16:01:28.538Z,8.00
2018-12-20T16:02:28.490Z,8.00
2018-12-20T16:03:28.406Z,8.00
2018-12-20T16:04:29.657Z,8.00
2018-12-20T16:05:28.294Z,8.00
2018-12-20T16:06:28.209Z,8.00
2018-12-20T16:07:28.146Z,8.00
2018-12-20T16:08:28.079Z,8.00
2018-12-20T16:09:28.029Z,8.00
2018-12-20T16:10:27.945Z,8.00
2018-12-20T16:11:27.884Z,8.00
2018-12-20T16:12:27.819Z,8.00
2018-12-20T16:13:27.748Z,8.00
2018-12-20T16:14:27.705Z,8.00
2018-12-20T16:15:27.648Z,8.00
2018-12-20T16:16:27.554Z,8.00
2018-12-20T16:17:27.500Z,8.00
2018-12-20T16:18:27.464Z,8.00
2018-12-20T16:19:27.477Z,8.00
2018-12-20T16:20:27.294Z,8.00
2018-12-20T16:21:27.233Z,8.00
2018-12-20T16:22:27.192Z,8.00
2018-12-20T16:23:27.107Z,8.00
2018-12-20T16:24:27.033Z,8.00
2018-12-20T16:25:26.966Z,8.00
2018-12-20T16:26:26.902Z,8.00
2018-12-20T16:27:27.061Z,8.00
2018-12-20T16:28:26.770Z,8.00
2018-12-20T16:29:26.723Z,8.00
2018-12-20T16:30:26.635Z,8.00
2018-12-20T16:31:26.575Z,8.00
2018-12-20T16:32:26.514Z,8.00
2018-12-20T16:33:26.498Z,8.00
2018-12-20T16:34:26.379Z,8.00
2018-12-20T16:35:26.319Z,8.00
2018-12-20T16:36:26.256Z,8.00
2018-12-20T16:37:26.182Z,8.00
2018-12-20T16:38:26.135Z,8.00
2018-12-20T16:39:26.050Z,8.00
2018-12-20T16:40:25.993Z,8.00
2018-12-20T16:41:25.923Z,8.00
2018-12-20T16:42:25.886Z,8.00
2018-12-20T16:43:25.791Z,8.00
2018-12-20T16:44:25.718Z,8.00
2018-12-20T16:45:25.681Z,8.00
2018-12-20T16:46:25.596Z,8.00
2018-12-20T16:47:25.539Z,8.00
2018-12-20T16:48:25.461Z,8.00
2018-12-20T16:49:25.405Z,8.00
2018-12-20T16:50:25.339Z,8.00
2018-12-20T16:51:25.264Z,8.00
2018-12-20T16:52:25.195Z,8.00
2018-12-20T16:53:25.128Z,8.00
2018-12-20T16:54:25.059Z,8.00
2018-12-20T16:55:24.999Z,8.00
2018-12-20T16:56:24.943Z,8.00
2018-12-20T16:57:24.880Z,8.00
2018-12-20T16:58:24.808Z,8.00
2018-12-20T16:59:24.729Z,8.00
2018-12-20T17:00:24.718Z,8.00
2018-12-20T17:01:24.606Z,8.00
2018-12-20T17:02:24.549Z,8.00
2018-12-20T17:03:24.516Z,8.00
2018-12-20T17:04:24.413Z,8.00
2018-12-20T17:05:24.333Z,8.00
2018-12-20T17:06:24.272Z,8.00
2018-12-20T17:07:24.219Z,8.00
2018-12-20T17:08:24.143Z,8.00
2018-12-20T17:09:24.086Z,8.00
2018-12-20T17:10:24.018Z,8.00
2018-12-20T17:11:23.942Z,8.00
2018-12-20T17:12:23.887Z,8.00
2018-12-20T17:13:23.814Z,8.00
2018-12-20T17:14:23.747Z,8.00
2018-12-20T17:15:23.681Z,8.00
2018-12-20T17:16:23.610Z,8.00
2018-12-20T17:17:23.574Z,8.00
2018-12-20T17:18:23.492Z,8.00
2018-12-20T17:19:23.416Z,8.00
2018-12-20T17:20:23.366Z,8.00
2018-12-20T17:21:23.294Z,8.00
2018-12-20T17:22:23.218Z,8.00
2018-12-20T17:23:23.155Z,8.00
2018-12-20T17:24:23.088Z,8.00
2018-12-20T17:25:23.030Z,8.00
2018-12-20T17:26:23.016Z,8.00
2018-12-20T17:27:22.903Z,8.00
2018-12-20T17:28:22.835Z,8.00
2018-12-20T17:29:22.757Z,8.00
2018-12-20T17:30:22.692Z,8.00
2018-12-20T17:31:22.635Z,8.00
2018-12-20T17:32:22.567Z,8.00
2018-12-20T17:33:22.499Z,8.00
2018-12-20T17:34:22.434Z,8.00
2018-12-20T17:35:22.387Z,8.00
2018-12-20T17:36:22.295Z,8.00
2018-12-20T17:37:22.232Z,8.00
2018-12-20T17:38:22.170Z,8.00
2018-12-20T17:39:22.103Z,8.00
2018-12-20T17:40:22.037Z,8.00
2018-12-20T17:41:21.970Z,8.00
2018-12-20T17:42:21.901Z,8.00
2018-12-20T17:43:21.837Z,8.00
2018-12-20T17:44:21.771Z,8.00
2018-12-20T17:45:21.796Z,8.00
2018-12-20T17:46:21.642Z,8.00
2018-12-20T17:47:21.574Z,8.00
2018-12-20T17:48:28.988Z,8.00
2018-12-20T17:49:21.440Z,8.00
2018-12-20T17:50:21.379Z,8.00
2018-12-20T17:51:21.339Z,8.00
2018-12-20T17:52:21.259Z,8.00
2018-12-20T17:53:21.178Z,8.00
2018-12-20T17:54:21.114Z,8.00
2018-12-20T17:55:21.052Z,8.00
2018-12-20T17:56:20.991Z,8.00
2018-12-20T17:57:20.915Z,8.00
2018-12-20T17:58:20.872Z,8.00
2018-12-20T17:59:20.799Z,8.00
2018-12-20T18:00:20.721Z,8.00
2018-12-20T18:01:20.659Z,8.00
2018-12-20T18:02:20.587Z,8.00
2018-12-20T18:03:20.528Z,8.00
2018-12-20T18:04:20.466Z,8.00
2018-12-20T18:05:20.393Z,8.00
2018-12-20T18:06:20.327Z,8.00
2018-12-20T18:07:20.257Z,8.00
2018-12-20T18:08:20.192Z,8.00
2018-12-20T18:09:20.132Z,8.00
2018-12-20T18:10:20.066Z,8.00
2018-12-20T18:11:19.998Z,8.00
2018-12-20T18:12:19.933Z,8.00
2018-12-20T18:13:19.865Z,8.00
2018-12-20T18:14:19.796Z,8.00
2018-12-20T18:15:19.731Z,8.00
2018-12-20T18:16:19.667Z,8.00
2018-12-20T18:17:19.605Z,8.00
2018-12-20T18:18:19.535Z,8.00
2018-12-20T18:19:19.476Z,8.00
2018-12-20T18:20:19.425Z,8.00
2018-12-20T18:21:19.332Z,8.00
2018-12-20T18:22:19.303Z,8.00
2018-12-20T18:23:19.206Z,8.00
2018-12-20T18:24:19.168Z,8.00
2018-12-20T18:25:19.074Z,8.00
2018-12-20T18:26:19.014Z,8.00
2018-12-20T18:27:18.942Z,0.00
2018-12-20T18:28:18.889Z,0.00
2018-12-20T18:29:18.820Z,0.00
2018-12-20T18:30:18.745Z,0.00
2018-12-20T18:31:18.679Z,0.00
2018-12-20T18:32:18.615Z,0.00
2018-12-20T18:33:18.550Z,0.00
2018-12-20T18:34:18.500Z,0.00
2018-12-20T18:35:18.436Z,0.00
2018-12-20T18:36:18.363Z,0.00
2018-12-20T18:37:18.289Z,0.00
2018-12-20T18:38:18.218Z,0.00
2018-12-20T18:39:18.157Z,0.00
2018-12-20T18:40:18.088Z,0.00
2018-12-20T18:41:18.023Z,0.00
2018-12-20T18:42:17.962Z,0.00
2018-12-20T18:43:17.894Z,0.00
2018-12-20T18:44:17.827Z,0.00
2018-12-20T18:45:17.759Z,0.00
2018-12-20T18:46:17.694Z,0.00
2018-12-20T18:47:17.638Z,0.00
2018-12-20T18:48:17.562Z,0.00
2018-12-20T18:49:17.501Z,0.00
2018-12-20T18:50:17.430Z,0.00
2018-12-20T18:51:17.366Z,0.00
2018-12-20T18:52:17.295Z,0.00
2018-12-20T18:53:17.260Z,0.00
2018-12-20T18:54:17.166Z,0.00
2018-12-20T18:55:17.101Z,0.00
2018-12-20T18:56:17.039Z,0.00
2018-12-20T18:57:16.970Z,0.00
2018-12-20T18:58:16.911Z,0.00
2018-12-20T18:59:16.851Z,0.00
2018-12-20T19:00:16.777Z,0.00
2018-12-20T19:01:16.704Z,0.00
2018-12-20T19:02:16.646Z,0.00
2018-12-20T19:03:16.574Z,0.00
2018-12-20T19:04:16.508Z,0.00
2018-12-20T19:05:16.458Z,0.00
2018-12-20T19:06:16.382Z,0.00
2018-12-20T19:07:16.340Z,0.00
2018-12-20T19:08:16.243Z,0.00
2018-12-20T19:09:16.179Z,0.00
2018-12-20T19:10:16.114Z,0.00
2018-12-20T19:11:16.048Z,0.00
2018-12-20T19:12:15.982Z,0.00
2018-12-20T19:13:15.911Z,0.00
2018-12-20T19:14:16.306Z,0.00
2018-12-20T19:15:15.779Z,0.00
2018-12-20T19:16:15.719Z,0.00
2018-12-20T19:17:15.652Z,0.00
2018-12-20T19:18:15.586Z,0.00
2018-12-20T19:19:15.529Z,0.00
2018-12-20T19:21:15.389Z,0.00
2018-12-20T19:22:15.318Z,0.00
2018-12-20T19:22:56.240Z,0.00
2018-12-20T19:23:15.256Z,0.00
2018-12-20T19:24:15.198Z,0.00
2018-12-20T19:25:15.126Z,0.00
2018-12-20T19:26:15.059Z,0.00
2018-12-20T19:27:14.995Z,0.00
2018-12-20T19:28:14.933Z,0.00
2018-12-20T19:29:14.869Z,0.00
2018-12-20T19:30:14.800Z,0.00
2018-12-20T19:31:14.740Z,0.00
2018-12-20T19:32:14.698Z,0.00
2018-12-20T19:33:14.598Z,0.00
2018-12-20T19:34:14.537Z,0.00
2018-12-20T19:35:14.467Z,0.00
2018-12-20T19:36:14.444Z,0.00
2018-12-20T19:37:14.350Z,0.00
2018-12-20T19:38:20.414Z,0.00
2018-12-20T19:39:14.202Z,0.00
2018-12-20T19:40:14.137Z,0.00
2018-12-20T19:41:14.071Z,0.00
2018-12-20T19:42:14.015Z,0.00
2018-12-20T19:43:13.939Z,0.00
2018-12-20T19:44:13.874Z,0.00
2018-12-20T19:45:13.939Z,0.00
2018-12-20T19:46:13.739Z,0.00
2018-12-20T19:47:13.680Z,0.00
2018-12-20T19:48:13.612Z,0.00
2018-12-20T19:49:13.546Z,0.00
2018-12-20T19:50:13.482Z,0.00
2018-12-20T19:51:13.409Z,0.00
2018-12-20T19:52:13.350Z,0.00
2018-12-20T19:53:13.277Z,0.00
2018-12-20T19:54:13.212Z,0.00
2018-12-20T19:55:13.148Z,0.00
2018-12-20T19:56:13.086Z,0.00
2018-12-20T19:57:13.023Z,0.00
2018-12-20T19:58:12.948Z,0.00
2018-12-20T19:59:12.884Z,0.00
2018-12-20T20:00:12.812Z,0.00
2018-12-20T20:01:12.751Z,0.00
2018-12-20T20:02:12.698Z,0.00
2018-12-20T20:03:12.623Z,0.00
2018-12-20T20:04:12.571Z,0.00
2018-12-20T20:05:12.484Z,0.00